Terminal Aerodrome Forecast
Issued by NWS

Current Version | Previous Version | Text Only | Print | Product List | Glossary Off
Versions: 1 2 3 4 5 6 7 8 9 10 11 12 13 14 15 16 17 18 19 20 21 22 23 24 25

461
FTUS41 KRLX 251016 AAB
TAFCKB
TAF AMD
KCKB 251016Z 2510/2606 32005KT 3SM BR SCT030
      TEMPO 2511/2513 2SM BR BKN025
     FM251600 35003KT P6SM SCT030=

USA.gov is the U.S. government's official web portal to all federal, state and local government web resources and services.